createdAt,value
2023-03-21T00:02:25.074Z,101483.16
2023-03-21T00:04:55.099Z,101487.19
2023-03-21T00:07:25.029Z,101488.59
2023-03-21T00:09:59.094Z,101488.78
2023-03-21T00:12:32.676Z,101488.69
2023-03-21T00:15:04.744Z,101476.63
2023-03-21T00:17:33.611Z,101471.97
2023-03-21T00:20:01.983Z,101479.50
2023-03-21T00:22:30.185Z,101481.00
2023-03-21T00:24:58.114Z,101477.63
2023-03-21T00:27:45.200Z,101479.34
2023-03-21T00:30:16.273Z,101475.03
2023-03-21T00:32:55.539Z,101470.16
2023-03-21T00:38:12.688Z,101469.47
2023-03-21T00:40:48.621Z,101471.75
2023-03-21T00:43:19.299Z,101473.22
2023-03-21T00:45:48.809Z,101466.72
2023-03-21T00:48:16.694Z,101464.53
2023-03-21T00:50:46.849Z,101466.50
2023-03-21T00:53:15.490Z,101453.78
2023-03-21T00:55:46.068Z,101458.19
2023-03-21T00:58:14.517Z,101454.03
2023-03-21T01:00:42.692Z,101457.41
2023-03-21T01:03:24.550Z,101457.44
2023-03-21T01:06:07.349Z,101446.47
2023-03-21T01:08:50.407Z,101450.50
2023-03-21T01:11:22.737Z,101451.81
2023-03-21T01:13:56.030Z,101451.34
2023-03-21T01:16:27.674Z,101441.53
2023-03-21T01:18:57.326Z,101446.25
2023-03-21T01:21:25.394Z,101446.47
2023-03-21T01:23:53.810Z,101435.59
2023-03-21T01:26:22.155Z,101440.38
2023-03-21T01:28:50.126Z,101440.38
2023-03-21T01:31:19.106Z,101447.41
2023-03-21T01:33:47.469Z,101444.91
2023-03-21T01:36:22.382Z,101436.03
2023-03-21T01:38:51.665Z,101439.09
2023-03-21T01:41:33.539Z,101440.59
2023-03-21T01:44:06.062Z,101436.69
2023-03-21T01:46:49.693Z,101441.16
2023-03-21T01:49:26.163Z,101442.16
2023-03-21T01:52:06.551Z,101438.41
2023-03-21T01:54:42.273Z,101435.03
2023-03-21T01:57:15.032Z,101430.78
2023-03-21T01:59:45.342Z,101431.44
2023-03-21T02:02:18.194Z,101426.50
2023-03-21T02:04:50.810Z,101423.75
2023-03-21T02:07:25.990Z,101424.13
2023-03-21T02:09:55.519Z,101421.69
2023-03-21T02:12:24.102Z,101423.53
2023-03-21T02:14:54.402Z,101424.59
2023-03-21T02:17:30.156Z,101421.69
2023-03-21T02:20:28.612Z,101413.00
2023-03-21T02:23:38.100Z,101417.63
2023-03-21T02:26:52.484Z,101410.00
2023-03-21T02:30:01.389Z,101402.72
2023-03-21T02:32:43.307Z,101406.69
2023-03-21T02:35:26.096Z,101401.31
2023-03-21T02:38:00.910Z,101407.19
2023-03-21T02:40:34.935Z,101405.16
2023-03-21T02:43:17.000Z,101403.81
2023-03-21T02:45:56.770Z,101404.44
2023-03-21T02:48:41.014Z,101397.56
2023-03-21T02:51:17.392Z,101401.69
2023-03-21T02:54:16.196Z,101400.75
2023-03-21T02:56:43.078Z,101392.56
2023-03-21T02:59:12.151Z,101393.75
2023-03-21T03:01:40.184Z,101398.16
2023-03-21T03:04:19.823Z,101398.56
2023-03-21T03:07:06.971Z,101394.63
2023-03-21T03:09:44.689Z,101392.56
2023-03-21T03:12:22.621Z,101393.31
2023-03-21T03:15:03.863Z,101382.94
2023-03-21T03:17:50.272Z,101388.81
2023-03-21T03:20:25.728Z,101382.53
2023-03-21T03:23:00.890Z,101384.94
2023-03-21T03:25:42.846Z,101378.41
2023-03-21T03:28:14.510Z,101374.06
2023-03-21T03:30:57.155Z,101372.97
2023-03-21T03:33:33.356Z,101372.50
2023-03-21T03:36:06.388Z,101367.81
2023-03-21T03:38:38.161Z,101362.13
2023-03-21T03:41:14.777Z,101370.03
2023-03-21T03:43:48.593Z,101370.78
2023-03-21T03:46:21.064Z,101369.72
2023-03-21T03:48:53.372Z,101368.84
2023-03-21T03:51:27.346Z,101360.16
2023-03-21T03:53:59.959Z,101368.53
2023-03-21T03:56:32.125Z,101380.41
2023-03-21T03:59:00.742Z,101380.31
2023-03-21T04:01:30.982Z,101368.22
2023-03-21T04:04:12.146Z,101374.78
2023-03-21T04:06:41.487Z,101372.84
2023-03-21T04:09:19.004Z,101364.28
2023-03-21T04:11:49.908Z,101363.78
2023-03-21T04:14:18.205Z,101369.59
2023-03-21T04:16:46.534Z,101374.13
2023-03-21T04:19:15.908Z,101365.44
2023-03-21T04:21:44.600Z,101371.06
2023-03-21T04:24:13.906Z,101367.34
2023-03-21T04:26:42.326Z,101369.22
2023-03-21T04:29:11.725Z,101370.63
2023-03-21T04:31:41.722Z,101374.78
2023-03-21T04:34:12.764Z,101366.84
2023-03-21T04:36:44.167Z,101370.38
2023-03-21T04:39:13.318Z,101361.69
2023-03-21T04:41:41.939Z,101366.44
2023-03-21T04:44:12.825Z,101362.09
2023-03-21T04:46:41.422Z,101350.56
2023-03-21T04:49:09.771Z,101360.22
2023-03-21T04:51:41.056Z,101356.75
2023-03-21T04:54:11.840Z,101354.19
2023-03-21T04:56:41.091Z,101356.03
2023-03-21T04:59:12.738Z,101356.53
2023-03-21T05:01:43.829Z,101362.97
2023-03-21T05:04:13.210Z,101359.44
2023-03-21T05:06:42.665Z,101358.94
2023-03-21T05:09:11.158Z,101361.13
2023-03-21T05:11:41.240Z,101357.97
2023-03-21T05:14:12.358Z,101365.72
2023-03-21T05:16:45.081Z,101361.13
2023-03-21T05:19:14.055Z,101353.31
2023-03-21T05:21:42.497Z,101365.09
2023-03-21T05:24:12.276Z,101357.63
2023-03-21T05:26:40.734Z,101353.09
2023-03-21T05:29:09.405Z,101354.63
2023-03-21T05:31:38.854Z,101356.69
2023-03-21T05:34:06.792Z,101361.94
2023-03-21T05:36:36.141Z,101354.06
2023-03-21T05:39:04.760Z,101352.16
2023-03-21T05:41:33.391Z,101353.38
2023-03-21T05:44:01.763Z,101345.88
2023-03-21T05:46:29.679Z,101344.53
2023-03-21T05:48:59.193Z,101336.22
2023-03-21T05:51:27.457Z,101343.53
2023-03-21T05:53:56.255Z,101331.06
2023-03-21T05:56:24.234Z,101339.94
2023-03-21T05:58:52.073Z,101332.13
2023-03-21T06:01:19.954Z,101335.00
2023-03-21T06:03:48.044Z,101341.63
2023-03-21T06:06:17.321Z,101342.50
2023-03-21T06:08:45.558Z,101345.78
2023-03-21T06:11:23.911Z,101347.28
2023-03-21T06:13:51.983Z,101340.22
2023-03-21T06:16:19.985Z,101341.00
2023-03-21T06:18:48.951Z,101334.13
2023-03-21T06:21:18.153Z,101334.13
2023-03-21T06:23:46.905Z,101332.22
2023-03-21T06:26:15.357Z,101322.16
2023-03-21T06:28:43.232Z,101323.09
2023-03-21T06:31:11.340Z,101331.13
2023-03-21T06:33:39.258Z,101327.47
2023-03-21T06:44:25.795Z,101327.44
2023-03-21T06:46:54.178Z,101323.38
2023-03-21T06:49:22.374Z,101330.09
2023-03-21T06:51:50.377Z,101327.53
2023-03-21T06:54:19.342Z,101330.66
2023-03-21T06:56:47.467Z,101323.03
2023-03-21T06:59:15.688Z,101330.16
2023-03-21T07:01:45.144Z,101327.31
2023-03-21T07:04:13.527Z,101333.88
2023-03-21T07:06:42.723Z,101333.50
2023-03-21T07:09:10.851Z,101334.81
2023-03-21T07:11:39.167Z,101329.56
2023-03-21T07:14:07.850Z,101339.03
2023-03-21T07:16:36.142Z,101340.41
2023-03-21T07:19:05.766Z,101330.50
2023-03-21T07:21:33.931Z,101337.72
2023-03-21T07:24:01.782Z,101329.72
2023-03-21T07:26:29.855Z,101328.41
2023-03-21T07:29:02.198Z,101335.91
2023-03-21T07:31:30.181Z,101337.03
2023-03-21T07:33:59.000Z,101333.84
2023-03-21T07:36:28.766Z,101333.56
2023-03-21T07:38:57.307Z,101331.84
2023-03-21T07:41:25.348Z,101334.63
2023-03-21T07:43:53.304Z,101330.88
2023-03-21T07:46:21.312Z,101330.03
2023-03-21T07:48:49.358Z,101339.91
2023-03-21T07:51:17.238Z,101335.84
2023-03-21T07:53:48.619Z,101327.22
2023-03-21T07:56:17.128Z,101328.00
2023-03-21T07:58:45.008Z,101330.50
2023-03-21T08:01:12.885Z,101329.44
2023-03-21T08:03:41.018Z,101333.19
2023-03-21T08:06:10.018Z,101336.53
2023-03-21T08:08:38.717Z,101328.19
2023-03-21T08:11:08.997Z,101335.78
2023-03-21T08:13:36.846Z,101333.47
2023-03-21T08:16:05.042Z,101326.59
2023-03-21T08:18:33.086Z,101323.69
2023-03-21T08:21:01.217Z,101332.38
2023-03-21T08:23:29.735Z,101326.41
2023-03-21T08:25:58.655Z,101319.84
2023-03-21T08:28:28.497Z,101327.41
2023-03-21T08:30:57.089Z,101316.66
2023-03-21T08:33:25.171Z,101321.56
2023-03-21T08:35:53.104Z,101320.63
2023-03-21T08:38:21.543Z,101320.06
2023-03-21T08:40:49.468Z,101317.50
2023-03-21T08:43:17.385Z,101322.19
2023-03-21T08:45:46.658Z,101314.19
2023-03-21T08:48:14.647Z,101311.47
2023-03-21T08:50:42.599Z,101315.13
2023-03-21T08:53:10.605Z,101317.75
2023-03-21T08:55:39.111Z,101324.06
2023-03-21T08:58:07.826Z,101326.28
2023-03-21T09:00:35.849Z,101326.41
2023-03-21T09:03:05.373Z,101313.13
2023-03-21T09:05:33.725Z,101327.78
2023-03-21T09:08:03.415Z,101312.44
2023-03-21T09:10:31.725Z,101323.22
2023-03-21T09:12:59.614Z,101312.91
2023-03-21T09:15:29.551Z,101315.84
2023-03-21T09:18:13.280Z,101310.72
2023-03-21T09:20:43.873Z,101318.63
2023-03-21T09:23:13.355Z,101312.06
2023-03-21T09:25:42.312Z,101308.06
2023-03-21T09:28:10.662Z,101316.47
2023-03-21T09:30:38.842Z,101309.72
2023-03-21T09:33:09.821Z,101310.56
2023-03-21T09:35:38.035Z,101320.38
2023-03-21T09:38:07.853Z,101311.44
2023-03-21T09:40:58.396Z,101313.25
2023-03-21T09:43:38.304Z,101310.19
2023-03-21T09:46:11.414Z,101298.81
2023-03-21T09:48:56.643Z,101310.09
2023-03-21T09:51:28.836Z,101305.19
2023-03-21T09:54:02.581Z,101308.81
2023-03-21T09:56:31.556Z,101303.94
2023-03-21T09:59:01.706Z,101304.59
2023-03-21T10:01:35.503Z,101299.56
2023-03-21T10:04:07.331Z,101304.53
2023-03-21T10:06:39.317Z,101297.38
2023-03-21T10:09:15.248Z,101305.31
2023-03-21T10:11:47.014Z,101298.78
2023-03-21T10:14:20.237Z,101297.47
2023-03-21T10:16:51.489Z,101300.56
2023-03-21T10:19:20.733Z,101290.19
2023-03-21T10:22:06.159Z,101302.34
2023-03-21T10:24:36.161Z,101290.09
2023-03-21T10:27:05.547Z,101287.69
2023-03-21T10:29:37.260Z,101285.31
2023-03-21T10:32:05.556Z,101282.50
2023-03-21T10:34:37.749Z,101283.28
2023-03-21T10:37:06.769Z,101280.81
2023-03-21T10:39:40.359Z,101273.84
2023-03-21T10:42:16.098Z,101285.91
2023-03-21T10:44:48.580Z,101281.47
2023-03-21T10:47:22.508Z,101282.41
2023-03-21T10:50:06.773Z,101273.66
2023-03-21T10:52:36.758Z,101277.47
2023-03-21T10:55:19.749Z,101284.53
2023-03-21T10:57:48.622Z,101272.50
2023-03-21T11:00:23.105Z,101272.50
2023-03-21T11:02:53.149Z,101272.22
2023-03-21T11:05:24.269Z,101266.44
2023-03-21T11:08:04.102Z,101256.59
2023-03-21T11:10:35.887Z,101256.53
2023-03-21T11:13:08.274Z,101266.69
2023-03-21T11:15:47.833Z,101257.31
2023-03-21T11:18:20.977Z,101257.81
2023-03-21T11:20:55.191Z,101255.06
2023-03-21T11:23:29.748Z,101256.81
2023-03-21T11:26:01.382Z,101255.72
2023-03-21T11:28:35.116Z,101252.81
2023-03-21T11:31:05.738Z,101257.06
2023-03-21T11:33:36.676Z,101252.53
2023-03-21T11:36:07.615Z,101242.34
2023-03-21T11:38:39.288Z,101247.97
2023-03-21T11:41:09.091Z,101246.59
2023-03-21T11:43:38.199Z,101244.91
2023-03-21T11:46:11.469Z,101243.31
2023-03-21T11:48:42.227Z,101238.44
2023-03-21T11:51:19.931Z,101232.22
2023-03-21T11:53:52.715Z,101230.13
2023-03-21T11:56:27.482Z,101225.94
2023-03-21T11:59:18.965Z,101219.41
2023-03-21T12:02:07.094Z,101227.19
2023-03-21T12:04:41.479Z,101219.81
2023-03-21T12:07:36.269Z,101222.25
2023-03-21T12:10:25.063Z,101209.06
2023-03-21T12:13:01.776Z,101212.16
2023-03-21T12:15:37.228Z,101205.75
2023-03-21T12:18:12.705Z,101205.09
2023-03-21T12:20:45.684Z,101204.81
2023-03-21T12:23:39.450Z,101201.63
2023-03-21T12:26:18.077Z,101189.97
2023-03-21T12:29:01.306Z,101198.78
2023-03-21T12:31:41.105Z,101192.44
2023-03-21T12:34:22.698Z,101190.44
2023-03-21T12:37:07.138Z,101185.03
2023-03-21T12:39:37.242Z,101184.72
2023-03-21T12:42:21.849Z,101184.38
2023-03-21T12:44:56.081Z,101178.59
2023-03-21T12:47:27.480Z,101177.09
2023-03-21T12:50:01.563Z,101169.91
2023-03-21T12:52:33.352Z,101173.63
2023-03-21T12:55:04.394Z,101170.56
2023-03-21T12:57:35.671Z,101164.75
2023-03-21T13:00:13.637Z,101165.34
2023-03-21T13:02:45.673Z,101152.91
2023-03-21T13:05:21.823Z,101161.34
2023-03-21T13:07:53.263Z,101153.84
2023-03-21T13:10:23.298Z,101152.44
2023-03-21T13:13:07.777Z,101156.03
2023-03-21T13:15:58.988Z,101146.00
2023-03-21T13:18:53.487Z,101140.19
2023-03-21T13:21:32.958Z,101137.19
2023-03-21T13:24:03.347Z,101133.31
2023-03-21T13:26:35.000Z,101139.38
2023-03-21T13:29:02.992Z,101137.00
2023-03-21T13:31:48.845Z,101128.09
2023-03-21T13:34:22.543Z,101135.94
2023-03-21T13:36:52.011Z,101119.41
2023-03-21T13:39:21.939Z,101124.16
2023-03-21T13:41:50.460Z,101134.03
2023-03-21T13:44:25.076Z,101120.41
2023-03-21T13:47:01.036Z,101128.03
2023-03-21T13:49:35.401Z,101123.09
2023-03-21T13:52:22.597Z,101128.28
2023-03-21T13:54:54.570Z,101129.09
2023-03-21T13:57:38.357Z,101108.91
2023-03-21T14:00:30.118Z,101122.22
2023-03-21T14:03:03.700Z,101116.97
2023-03-21T14:05:31.946Z,101113.88
2023-03-21T14:08:15.381Z,101106.09
2023-03-21T14:10:49.088Z,101109.38
2023-03-21T14:13:20.527Z,101097.28
2023-03-21T14:15:55.962Z,101094.94
2023-03-21T14:18:35.179Z,101103.13
2023-03-21T14:21:23.538Z,101093.13
2023-03-21T14:23:58.749Z,101093.22
2023-03-21T14:26:27.431Z,101092.13
2023-03-21T14:28:56.077Z,101099.69
2023-03-21T14:31:24.550Z,101096.16
2023-03-21T14:33:57.305Z,101092.38
2023-03-21T14:36:27.221Z,101085.94
2023-03-21T14:38:59.422Z,101089.31
2023-03-21T14:41:29.218Z,101086.84
2023-03-21T14:44:12.008Z,101080.84
2023-03-21T14:46:40.008Z,101079.47
2023-03-21T14:49:21.333Z,101080.63
2023-03-21T14:51:51.260Z,101075.94
2023-03-21T14:54:20.639Z,101073.31
2023-03-21T14:56:51.555Z,101067.97
2023-03-21T14:59:23.745Z,101067.84
2023-03-21T15:01:53.810Z,101072.69
2023-03-21T15:04:23.320Z,101066.47
2023-03-21T15:06:53.899Z,101055.38
2023-03-21T15:09:24.848Z,101053.97
2023-03-21T15:11:54.125Z,101049.69
2023-03-21T15:14:27.111Z,101053.81
2023-03-21T15:16:56.121Z,101048.44
2023-03-21T15:19:31.122Z,101038.03
2023-03-21T15:22:06.295Z,101047.72
2023-03-21T15:24:41.233Z,101049.63
2023-03-21T15:27:16.233Z,101042.44
2023-03-21T15:29:44.981Z,101047.34
2023-03-21T15:32:20.546Z,101048.81
2023-03-21T15:34:50.753Z,101040.16
2023-03-21T15:37:23.254Z,101039.28
2023-03-21T15:39:52.461Z,101053.06
2023-03-21T15:42:30.121Z,101036.81
2023-03-21T15:45:01.930Z,101046.78
2023-03-21T15:47:51.167Z,101039.13
2023-03-21T15:50:29.574Z,101033.28
2023-03-21T15:52:59.830Z,101030.00
2023-03-21T15:55:36.153Z,101032.91
2023-03-21T15:58:07.362Z,101024.09
2023-03-21T16:00:40.498Z,101021.78
2023-03-21T16:03:17.342Z,101029.00
2023-03-21T16:06:03.581Z,101024.56
2023-03-21T16:08:36.648Z,101031.88
2023-03-21T16:11:10.346Z,101032.00
2023-03-21T16:13:38.330Z,101036.59
2023-03-21T16:16:06.991Z,101044.44
2023-03-21T16:18:34.833Z,101039.28
2023-03-21T16:21:04.272Z,101036.41
2023-03-21T16:23:32.156Z,101048.78
2023-03-21T16:26:01.516Z,101037.97
2023-03-21T16:28:29.401Z,101030.81
2023-03-21T16:30:57.397Z,101034.69
2023-03-21T16:33:25.447Z,101036.06
2023-03-21T16:35:54.227Z,101030.41
2023-03-21T16:38:23.484Z,101037.84
2023-03-21T16:40:51.845Z,101031.63
2023-03-21T16:43:19.689Z,101034.84
2023-03-21T16:45:47.523Z,101027.06
2023-03-21T16:48:16.666Z,101023.50
2023-03-21T16:50:48.473Z,101027.59
2023-03-21T16:53:17.129Z,101021.09
2023-03-21T16:55:46.390Z,101020.84
2023-03-21T16:58:16.688Z,101018.28
2023-03-21T17:00:44.630Z,101008.72
2023-03-21T17:03:18.230Z,101017.19
2023-03-21T17:05:46.535Z,101003.22
2023-03-21T17:08:16.592Z,101015.06
2023-03-21T17:10:44.652Z,101016.56
2023-03-21T17:13:15.364Z,101012.81
2023-03-21T17:15:43.821Z,101018.84
2023-03-21T17:18:13.197Z,101017.44
2023-03-21T17:20:42.081Z,101017.72
2023-03-21T17:23:10.926Z,101016.56
2023-03-21T17:25:39.104Z,101017.94
2023-03-21T17:28:06.966Z,101024.88
2023-03-21T17:30:40.203Z,101021.03
2023-03-21T17:33:08.797Z,101014.00
2023-03-21T17:35:36.714Z,101011.00
2023-03-21T17:38:06.027Z,101014.44
2023-03-21T17:40:34.566Z,101014.66
2023-03-21T17:43:02.549Z,101018.44
2023-03-21T17:45:30.845Z,101016.94
2023-03-21T17:48:00.429Z,101017.88
2023-03-21T17:50:34.217Z,101020.88
2023-03-21T17:53:02.168Z,101021.91
2023-03-21T17:55:30.642Z,101023.16
2023-03-21T17:57:58.680Z,101022.84
2023-03-21T18:00:29.530Z,101034.50
2023-03-21T18:02:59.401Z,101021.22
2023-03-21T18:05:28.144Z,101023.53
2023-03-21T18:08:12.694Z,101023.16
2023-03-21T18:10:42.680Z,101021.13
2023-03-21T18:13:11.443Z,101020.47
2023-03-21T18:15:44.234Z,101025.72
2023-03-21T18:18:14.557Z,101022.59
2023-03-21T18:20:51.795Z,101020.78
2023-03-21T18:23:20.918Z,101023.47
2023-03-21T18:25:49.026Z,101022.59
2023-03-21T18:28:20.350Z,101011.41
2023-03-21T18:33:41.025Z,101008.19
2023-03-21T18:36:09.959Z,101006.75
2023-03-21T18:38:37.971Z,101010.75
2023-03-21T18:41:07.632Z,101004.75
2023-03-21T18:46:24.370Z,100999.56
2023-03-21T18:48:53.666Z,100996.97
2023-03-21T18:51:22.839Z,100994.38
2023-03-21T18:53:50.706Z,100997.38
2023-03-21T18:57:05.719Z,101012.44
2023-03-21T18:59:07.448Z,101000.53
2023-03-21T19:01:35.953Z,101003.78
2023-03-21T19:04:20.742Z,101003.09
2023-03-21T19:06:50.260Z,101010.06
2023-03-21T19:09:18.724Z,101011.59
2023-03-21T19:11:47.285Z,101000.38
2023-03-21T19:14:17.232Z,101006.38
2023-03-21T19:17:26.683Z,101009.91
2023-03-21T19:19:35.517Z,100999.25
2023-03-21T19:22:03.590Z,101004.41
2023-03-21T19:24:31.548Z,101004.81
2023-03-21T19:26:59.700Z,101002.41
2023-03-21T19:29:27.603Z,101003.97
2023-03-21T19:31:55.853Z,101004.31
2023-03-21T19:34:23.908Z,100999.38
2023-03-21T19:36:53.396Z,101000.13
2023-03-21T19:39:22.540Z,100996.69
2023-03-21T19:41:51.092Z,100997.03
2023-03-21T19:44:19.667Z,100991.44
2023-03-21T19:46:48.478Z,100986.34
2023-03-21T19:49:22.263Z,100980.63
2023-03-21T19:51:51.200Z,100978.06
2023-03-21T19:54:20.363Z,100974.72
2023-03-21T19:56:49.435Z,100981.28
2023-03-21T19:59:17.907Z,100984.19
2023-03-21T20:01:46.115Z,100979.28
2023-03-21T20:04:14.993Z,100978.25
2023-03-21T20:06:46.280Z,100973.16
2023-03-21T20:09:50.073Z,100973.38
2023-03-21T20:12:05.656Z,100967.16
2023-03-21T20:14:33.615Z,100972.91
2023-03-21T20:17:01.605Z,100968.78
2023-03-21T20:19:29.550Z,100967.78
2023-03-21T20:22:00.654Z,100963.97
2023-03-21T20:24:30.437Z,100961.19
2023-03-21T20:26:58.947Z,100969.00
2023-03-21T20:30:07.613Z,100958.94
2023-03-21T20:32:16.537Z,100962.78
2023-03-21T20:34:46.063Z,100967.16
2023-03-21T20:37:14.056Z,100961.25
2023-03-21T20:39:42.717Z,100965.88
2023-03-21T20:42:10.574Z,100966.44
2023-03-21T20:44:56.342Z,100959.69
2023-03-21T20:47:26.095Z,100961.72
2023-03-21T20:49:55.174Z,100960.88
2023-03-21T20:55:13.292Z,100965.88
2023-03-21T20:57:41.930Z,100960.13
2023-03-21T21:00:15.359Z,100961.31
2023-03-21T21:02:44.924Z,100947.63
2023-03-21T21:05:26.021Z,100951.47
2023-03-21T21:07:56.622Z,100945.75
2023-03-21T21:10:25.818Z,100943.31
2023-03-21T21:12:53.875Z,100945.69
2023-03-21T21:15:23.458Z,100941.50
2023-03-21T21:18:08.536Z,100949.41
2023-03-21T21:20:38.036Z,100935.06
2023-03-21T21:23:06.142Z,100929.19
2023-03-21T21:25:35.231Z,100930.06
2023-03-21T21:28:03.639Z,100928.44
2023-03-21T21:30:33.925Z,100926.09
2023-03-21T21:33:01.816Z,100921.50
2023-03-21T21:35:30.039Z,100924.94
2023-03-21T21:37:59.578Z,100926.84
2023-03-21T21:40:27.434Z,100916.91
2023-03-21T21:42:55.386Z,100916.16
2023-03-21T21:45:23.421Z,100915.38
2023-03-21T21:47:53.668Z,100915.28
2023-03-21T21:50:22.590Z,100920.88
2023-03-21T21:52:54.800Z,100919.25
2023-03-21T21:55:23.614Z,100910.69
2023-03-21T21:57:52.859Z,100919.16
2023-03-21T22:00:21.609Z,100917.78
2023-03-21T22:02:49.584Z,100911.88
2023-03-21T22:05:21.084Z,100915.63
2023-03-21T22:07:51.939Z,100908.75
2023-03-21T22:10:21.042Z,100907.28
2023-03-21T22:12:49.139Z,100911.66
2023-03-21T22:15:18.306Z,100909.31
2023-03-21T22:17:47.034Z,100903.75
2023-03-21T22:20:16.888Z,100906.44
2023-03-21T22:22:46.649Z,100908.88
2023-03-21T22:25:15.925Z,100899.78
2023-03-21T22:27:47.246Z,100899.97
2023-03-21T22:30:17.370Z,100896.38
2023-03-21T22:32:56.378Z,100899.69
2023-03-21T22:35:30.524Z,100893.75
2023-03-21T22:37:59.794Z,100887.22
2023-03-21T22:40:27.785Z,100893.22
2023-03-21T22:42:55.660Z,100888.91
2023-03-21T22:45:23.559Z,100890.03
2023-03-21T22:47:51.505Z,100879.34
2023-03-21T22:50:19.475Z,100881.44
2023-03-21T22:52:47.432Z,100886.25
2023-03-21T22:55:16.799Z,100874.19
2023-03-21T22:57:44.598Z,100882.81
2023-03-21T23:00:14.494Z,100877.41
2023-03-21T23:02:43.692Z,100874.59
2023-03-21T23:05:12.177Z,100883.47
2023-03-21T23:07:40.260Z,100882.88
2023-03-21T23:10:12.028Z,100884.81
2023-03-21T23:12:41.458Z,100888.75
2023-03-21T23:15:10.958Z,100882.75
2023-03-21T23:17:39.106Z,100885.19
2023-03-21T23:20:08.672Z,100874.94
2023-03-21T23:22:37.383Z,100874.16
2023-03-21T23:25:06.500Z,100878.00
2023-03-21T23:27:35.467Z,100869.53
2023-03-21T23:30:06.655Z,100878.41
2023-03-21T23:32:34.856Z,100875.94
2023-03-21T23:35:02.737Z,100871.22
2023-03-21T23:37:30.991Z,100872.38
2023-03-21T23:39:58.951Z,100874.28
2023-03-21T23:42:28.879Z,100865.72
2023-03-21T23:44:57.171Z,100868.03
2023-03-21T23:47:26.424Z,100860.22
2023-03-21T23:49:54.546Z,100862.41
2023-03-21T23:52:22.516Z,100866.22
2023-03-21T23:54:50.630Z,100862.31
2023-03-21T23:57:18.504Z,100861.81
2023-03-21T23:59:47.224Z,100857.72
